Time;durP1;ratioP1;P1;durP2;ratioP2;P2;SDS_P1;SDS_P2;PMS_P1;PMS_P2;Temp;Humidity;BMP_temperature;BMP_pressure;BME280_temperature;BME280_humidity;BME280_pressure;Samples;Min_cycle;Max_cycle;Signal;HPM_P1;HPM_P2
2022/06/14 00:00:54;;;;;;;;;;;11.10;95.00;;;;;;5141552;27;20388;-78
2022/06/14 00:03:21;;;;;;;;;;;11.20;99.10;;;;;;5146319;27;19962;-80
2022/06/14 00:05:46;;;;;;;;;;;11.40;96.00;;;;;;5135600;27;19927;-76
2022/06/14 00:08:13;;;;;;;;;;;11.10;75.60;;;;;;5140000;27;19987;-76
2022/06/14 00:10:39;;;;;;;;;;;11.20;96.20;;;;;;5147666;27;19919;-77
2022/06/14 00:13:05;;;;;;;;;;;11.60;99.90;;;;;;5136568;27;20151;-76
2022/06/14 00:15:30;;;;;;;;;;;11.20;99.90;;;;;;5147581;27;19922;-76
2022/06/14 00:17:56;;;;;;;;;;;11.10;99.90;;;;;;5136554;27;19960;-76
2022/06/14 00:20:22;;;;;;;;;;;11.10;99.90;;;;;;5142623;27;20364;-76
2022/06/14 00:22:47;;;;;;;;;;;11.00;83.10;;;;;;5137910;27;19966;-76
2022/06/14 00:25:20;;;;;;;;;;;11.80;51.70;;;;;;5136960;27;19950;-76
2022/06/14 00:27:45;;;;;;;;;;;11.00;99.90;;;;;;5111876;27;19927;-79
2022/06/14 00:30:11;;;;;;;;;;;11.20;99.90;;;;;;5133074;27;19931;-76
2022/06/14 00:32:37;;;;;;;;;;;11.00;99.90;;;;;;5117387;27;19919;-76
2022/06/14 00:35:02;;;;;;;;;;;10.90;99.90;;;;;;5132633;27;19915;-83
2022/06/14 00:37:28;;;;;;;;;;;10.90;99.90;;;;;;5134543;27;19968;-74
2022/06/14 00:39:53;;;;;;;;;;;10.90;99.90;;;;;;5115791;27;19935;-74
2022/06/14 00:42:20;;;;;;;;;;;10.90;99.90;;;;;;5130315;27;19973;-73
2022/06/14 00:45:04;;;;;;;;;;;10.90;99.90;;;;;;5137286;27;20022;-73
2022/06/14 00:47:33;;;;;;;;;;;10.90;99.90;;;;;;5132514;27;19971;-77
2022/06/14 00:50:00;;;;;;;;;;;11.10;99.90;;;;;;5144602;27;19923;-76
2022/06/14 00:52:31;;;;;;;;;;;10.80;99.90;;;;;;5141546;27;19919;-75
2022/06/14 00:54:59;;;;;;;;;;;11.00;99.90;;;;;;5137624;27;19924;-76
2022/06/14 00:57:28;;;;;;;;;;;10.80;99.90;;;;;;5150245;27;19923;-84
2022/06/14 01:00:01;;;;;;;;;;;10.80;99.90;;;;;;5143430;27;20005;-76
2022/06/14 01:02:29;;;;;;;;;;;10.70;99.90;;;;;;5135026;27;19915;-76
2022/06/14 01:04:56;;;;;;;;;;;11.00;99.90;;;;;;5141854;27;19914;-76
2022/06/14 01:07:24;;;;;;;;;;;10.60;99.90;;;;;;5138203;27;19968;-76
2022/06/14 01:10:04;;;;;;;;;;;10.60;99.90;;;;;;5139502;27;20351;-76
2022/06/14 01:12:32;;;;;;;;;;;10.50;99.90;;;;;;5133158;27;19923;-80
2022/06/14 01:15:00;;;;;;;;;;;10.50;99.90;;;;;;5141327;27;20315;-76
2022/06/14 01:17:26;;;;;;;;;;;10.50;99.90;;;;;;5136132;27;20285;-81
2022/06/14 01:19:52;;;;;;;;;;;10.40;99.90;;;;;;5140164;27;19927;-76
2022/06/14 01:22:17;;;;;;;;;;;10.40;99.90;;;;;;5144193;27;19927;-76
2022/06/14 01:24:43;;;;;;;;;;;10.40;99.90;;;;;;5140737;27;19931;-80
2022/06/14 01:27:11;;;;;;;;;;;11.40;99.90;;;;;;5100644;27;20010;-79
2022/06/14 01:29:37;;;;;;;;;;;10.30;99.90;;;;;;5137394;27;19927;-77
2022/06/14 01:32:05;;;;;;;;;;;10.30;99.90;;;;;;5119532;27;19919;-75
2022/06/14 01:34:31;;;;;;;;;;;10.30;99.90;;;;;;5112962;27;20027;-80
2022/06/14 01:36:59;;;;;;;;;;;10.30;99.90;;;;;;5139550;27;19923;-76
2022/06/14 01:39:25;;;;;;;;;;;10.30;99.90;;;;;;5147668;27;19930;-75
2022/06/14 01:41:54;;;;;;;;;;;10.30;99.90;;;;;;5119789;27;19920;-76
2022/06/14 01:44:19;;;;;;;;;;;10.30;99.90;;;;;;5137819;27;19970;-75
2022/06/14 01:47:03;;;;;;;;;;;10.60;99.90;;;;;;5133108;27;21360;-76
2022/06/14 01:52:41;;;;;;;;;;;10.20;99.90;;;;;;5126375;27;19919;-76
2022/06/14 01:55:17;;;;;;;;;;;10.20;99.90;;;;;;5146655;27;19922;-75
2022/06/14 01:57:51;;;;;;;;;;;10.20;99.90;;;;;;5143741;27;19918;-76
2022/06/14 02:00:22;;;;;;;;;;;10.20;99.90;;;;;;5142326;27;20013;-76
2022/06/14 02:05:56;;;;;;;;;;;10.10;99.90;;;;;;5136924;27;19923;-76
2022/06/14 02:08:24;;;;;;;;;;;10.10;99.90;;;;;;5135902;27;20359;-78
2022/06/14 02:10:57;;;;;;;;;;;10.10;99.90;;;;;;5124211;27;19975;-76
2022/06/14 02:13:27;;;;;;;;;;;10.10;99.90;;;;;;5140452;27;20416;-75
2022/06/14 02:16:05;;;;;;;;;;;11.10;99.90;;;;;;5138522;27;19986;-82
2022/06/14 02:18:34;;;;;;;;;;;10.00;99.90;;;;;;5136467;27;19962;-78
2022/06/14 02:21:18;;;;;;;;;;;11.40;99.90;;;;;;5134612;27;20021;-75
2022/06/14 02:23:50;;;;;;;;;;;10.00;99.90;;;;;;5132779;27;19930;-81
2022/06/14 02:26:45;;;;;;;;;;;10.00;99.90;;;;;;5118933;27;19915;-79
2022/06/14 02:29:13;;;;;;;;;;;10.00;99.90;;;;;;5117712;27;19921;-79
2022/06/14 02:31:59;;;;;;;;;;;9.90;99.90;;;;;;5121893;27;19927;-83
2022/06/14 02:34:25;;;;;;;;;;;10.00;99.90;;;;;;5126687;27;20627;-76
2022/06/14 02:36:53;;;;;;;;;;;11.30;99.90;;;;;;5136305;27;19920;-76
2022/06/14 02:39:29;;;;;;;;;;;10.20;99.90;;;;;;5137420;27;19995;-76
2022/06/14 02:42:04;;;;;;;;;;;10.00;99.90;;;;;;5132764;27;20899;-83
2022/06/14 02:44:48;;;;;;;;;;;10.00;99.90;;;;;;5136601;27;19919;-76
2022/06/14 02:47:17;;;;;;;;;;;10.10;99.90;;;;;;5145975;27;19926;-75
2022/06/14 02:49:54;;;;;;;;;;;10.10;99.90;;;;;;5143138;27;20059;-75
2022/06/14 02:52:28;;;;;;;;;;;10.10;99.90;;;;;;5138332;27;20283;-75
2022/06/14 02:55:11;;;;;;;;;;;10.10;99.90;;;;;;5140812;27;20031;-76
2022/06/14 02:57:39;;;;;;;;;;;10.20;99.90;;;;;;5135999;27;19919;-75
2022/06/14 03:00:10;;;;;;;;;;;10.20;99.90;;;;;;5132858;27;19987;-77
2022/06/14 03:02:39;;;;;;;;;;;10.20;99.90;;;;;;5136990;27;20201;-76
2022/06/14 03:05:12;;;;;;;;;;;10.20;99.90;;;;;;5139783;27;19958;-75
2022/06/14 03:07:44;;;;;;;;;;;10.30;99.90;;;;;;5151014;27;19930;-75
2022/06/14 03:10:10;;;;;;;;;;;10.40;99.90;;;;;;5123136;27;19923;-75
2022/06/14 03:12:39;;;;;;;;;;;10.30;99.90;;;;;;5141844;27;19919;-76
2022/06/14 03:15:10;;;;;;;;;;;11.20;99.90;;;;;;5136185;27;19972;-76
2022/06/14 03:17:44;;;;;;;;;;;10.30;99.90;;;;;;5135316;27;20335;-76
2022/06/14 03:20:12;;;;;;;;;;;10.30;99.90;;;;;;5140041;27;19944;-76
2022/06/14 03:22:49;;;;;;;;;;;10.30;99.90;;;;;;5119115;27;20244;-81
2022/06/14 03:25:44;;;;;;;;;;;10.40;1.00;;;;;;5138007;27;19919;-76
2022/06/14 03:28:12;;;;;;;;;;;10.40;1.00;;;;;;5122116;27;19926;-76
2022/06/14 03:30:37;;;;;;;;;;;11.50;1.00;;;;;;5135051;27;20442;-79
2022/06/14 03:33:21;;;;;;;;;;;10.40;1.00;;;;;;5148471;27;20009;-76
2022/06/14 03:35:48;;;;;;;;;;;10.30;1.00;;;;;;5146880;27;19930;-76
2022/06/14 03:38:20;;;;;;;;;;;10.30;99.90;;;;;;5149342;27;19927;-78
2022/06/14 03:40:46;;;;;;;;;;;10.30;1.00;;;;;;5121065;27;19919;-76
2022/06/14 03:43:12;;;;;;;;;;;10.40;1.00;;;;;;5137914;27;20021;-82
2022/06/14 03:45:41;;;;;;;;;;;10.60;1.00;;;;;;5143696;27;19975;-76
2022/06/14 03:48:08;;;;;;;;;;;10.40;1.00;;;;;;5141101;27;20260;-76
2022/06/14 03:50:42;;;;;;;;;;;10.30;1.00;;;;;;5133725;27;20014;-76
2022/06/14 03:53:24;;;;;;;;;;;10.40;1.00;;;;;;5139171;27;20065;-81
2022/06/14 03:56:07;;;;;;;;;;;10.40;1.00;;;;;;5144168;27;19919;-76
2022/06/14 03:58:51;;;;;;;;;;;10.30;1.00;;;;;;5138671;27;20345;-77
2022/06/14 04:01:37;;;;;;;;;;;10.30;99.90;;;;;;5114090;27;20320;-76
2022/06/14 04:04:27;;;;;;;;;;;10.30;99.90;;;;;;5145635;27;19927;-75
2022/06/14 04:07:24;;;;;;;;;;;10.30;99.90;;;;;;5144358;27;19919;-83
2022/06/14 04:09:53;;;;;;;;;;;10.40;99.90;;;;;;5097618;27;19929;-76
2022/06/14 04:12:19;;;;;;;;;;;10.30;99.90;;;;;;5120197;27;20360;-76
2022/06/14 04:14:50;;;;;;;;;;;10.30;99.90;;;;;;5120825;27;20006;-78
2022/06/14 04:17:42;;;;;;;;;;;10.30;99.90;;;;;;5139088;27;20295;-76
2022/06/14 04:20:11;;;;;;;;;;;10.30;99.90;;;;;;5093900;27;19923;-77
2022/06/14 04:22:40;;;;;;;;;;;10.30;99.90;;;;;;5140919;27;19919;-76
2022/06/14 04:25:08;;;;;;;;;;;10.30;99.90;;;;;;5131947;27;20324;-76
2022/06/14 04:27:52;;;;;;;;;;;10.30;99.90;;;;;;5144099;27;19963;-77
2022/06/14 04:30:39;;;;;;;;;;;10.40;99.90;;;;;;5148464;27;19923;-76
2022/06/14 04:33:05;;;;;;;;;;;10.40;99.90;;;;;;5148405;27;19926;-76
2022/06/14 04:35:33;;;;;;;;;;;11.10;99.90;;;;;;5141779;27;19919;-84
2022/06/14 04:38:19;;;;;;;;;;;10.40;99.90;;;;;;5119723;27;20448;-76
2022/06/14 04:41:23;;;;;;;;;;;10.50;99.90;;;;;;5139838;27;20431;-76
2022/06/14 04:43:51;;;;;;;;;;;10.60;99.90;;;;;;5063989;28;20503;-75
2022/06/14 04:46:22;;;;;;;;;;;10.80;99.90;;;;;;5061714;28;19932;-76
2022/06/14 04:48:58;;;;;;;;;;;10.70;99.90;;;;;;5095362;27;20013;-76
2022/06/14 04:51:29;;;;;;;;;;;10.80;99.90;;;;;;5147243;27;19930;-76
2022/06/14 04:54:05;;;;;;;;;;;10.80;99.90;;;;;;5147343;27;20201;-76
2022/06/14 04:56:43;;;;;;;;;;;10.90;99.90;;;;;;5138405;27;20003;-76
2022/06/14 04:59:16;;;;;;;;;;;10.90;99.90;;;;;;5132084;27;20108;-76
2022/06/14 05:01:50;;;;;;;;;;;11.10;99.90;;;;;;5142464;27;19923;-77
2022/06/14 05:04:24;;;;;;;;;;;11.10;99.90;;;;;;5154892;27;20017;-76
2022/06/14 05:06:52;;;;;;;;;;;11.20;99.90;;;;;;5139136;27;19926;-76
2022/06/14 05:09:19;;;;;;;;;;;11.30;99.90;;;;;;5134891;27;20001;-76
2022/06/14 05:12:01;;;;;;;;;;;11.50;99.90;;;;;;5100118;27;19919;-76
2022/06/14 05:14:39;;;;;;;;;;;11.40;99.90;;;;;;5139314;27;19923;-76
2022/06/14 05:17:08;;;;;;;;;;;11.50;99.90;;;;;;5137484;27;19923;-76
2022/06/14 05:19:37;;;;;;;;;;;11.50;99.90;;;;;;5122670;27;19923;-77
2022/06/14 05:22:17;;;;;;;;;;;11.50;99.90;;;;;;5124359;27;20335;-76
2022/06/14 05:24:43;;;;;;;;;;;11.50;99.90;;;;;;5121638;27;20005;-85
2022/06/14 05:27:27;;;;;;;;;;;12.30;99.90;;;;;;5136823;27;20010;-76
2022/06/14 05:29:59;;;;;;;;;;;11.60;99.90;;;;;;5139037;27;20353;-76
2022/06/14 05:32:24;;;;;;;;;;;11.60;99.90;;;;;;5134446;27;20375;-78
2022/06/14 05:35:08;;;;;;;;;;;11.70;99.90;;;;;;5141650;27;19971;-76
2022/06/14 05:37:52;;;;;;;;;;;11.80;99.90;;;;;;5150759;27;20368;-76
2022/06/14 05:40:23;;;;;;;;;;;11.90;99.90;;;;;;5153393;27;20378;-76
2022/06/14 05:42:53;;;;;;;;;;;12.00;99.90;;;;;;5151158;27;19926;-76
2022/06/14 05:45:21;;;;;;;;;;;12.10;99.90;;;;;;5131622;27;20298;-76
2022/06/14 05:47:49;;;;;;;;;;;12.10;99.90;;;;;;5149847;27;19962;-77
2022/06/14 05:50:17;;;;;;;;;;;12.30;99.90;;;;;;5135917;27;19919;-76
2022/06/14 05:52:55;;;;;;;;;;;12.30;99.90;;;;;;5150600;27;19919;-76
2022/06/14 05:55:21;;;;;;;;;;;12.30;99.90;;;;;;5134774;27;19972;-77
2022/06/14 05:57:58;;;;;;;;;;;12.40;99.90;;;;;;5146508;27;20169;-76
2022/06/14 06:00:36;;;;;;;;;;;12.40;99.90;;;;;;5153866;27;19923;-76
2022/06/14 06:03:15;;;;;;;;;;;12.50;99.90;;;;;;5149775;27;19919;-76
2022/06/14 06:05:43;;;;;;;;;;;12.60;99.90;;;;;;5132392;27;20290;-76
2022/06/14 06:08:21;;;;;;;;;;;12.60;99.90;;;;;;5133335;27;19919;-77
2022/06/14 06:10:48;;;;;;;;;;;12.70;99.90;;;;;;5132165;27;19924;-77
2022/06/14 06:13:18;;;;;;;;;;;12.80;99.90;;;;;;5133528;27;19919;-76
2022/06/14 06:15:46;;;;;;;;;;;12.90;99.90;;;;;;5140473;27;19923;-77
2022/06/14 06:18:16;;;;;;;;;;;13.00;99.90;;;;;;5116329;27;20320;-75
2022/06/14 06:20:45;;;;;;;;;;;13.10;99.90;;;;;;5138434;27;19979;-76
2022/06/14 06:23:14;;;;;;;;;;;13.20;99.90;;;;;;5151956;27;19919;-82
2022/06/14 06:25:41;;;;;;;;;;;13.30;99.90;;;;;;5133938;27;20005;-75
2022/06/14 06:28:27;;;;;;;;;;;13.40;99.90;;;;;;5154177;27;20377;-75
2022/06/14 06:31:00;;;;;;;;;;;13.50;97.30;;;;;;5117103;27;19931;-75
2022/06/14 06:33:27;;;;;;;;;;;13.60;83.30;;;;;;5132867;27;19926;-76
2022/06/14 06:36:12;;;;;;;;;;;13.80;98.20;;;;;;5153079;27;19992;-75
2022/06/14 06:39:01;;;;;;;;;;;13.90;64.70;;;;;;5135113;27;19923;-75
2022/06/14 06:41:49;;;;;;;;;;;14.00;67.90;;;;;;5130628;27;19942;-75
2022/06/14 06:44:33;;;;;;;;;;;14.10;48.90;;;;;;5132231;27;20006;-75
2022/06/14 06:47:02;;;;;;;;;;;14.30;52.10;;;;;;5138911;27;19930;-74
2022/06/14 06:49:33;;;;;;;;;;;14.40;28.30;;;;;;5117496;27;19970;-75
2022/06/14 06:52:00;;;;;;;;;;;14.50;22.70;;;;;;5150190;27;19919;-74
2022/06/14 06:54:31;;;;;;;;;;;14.70;15.90;;;;;;5118726;27;20294;-75
2022/06/14 06:56:59;;;;;;;;;;;14.80;11.90;;;;;;5137807;27;19986;-75
2022/06/14 06:59:28;;;;;;;;;;;14.90;1.00;;;;;;5151428;27;19919;-75
2022/06/14 07:01:57;;;;;;;;;;;15.00;1.00;;;;;;5152339;27;19926;-76
2022/06/14 07:07:15;;;;;;;;;;;15.50;1.00;;;;;;5136524;27;20440;-76
2022/06/14 07:09:41;;;;;;;;;;;16.10;1.00;;;;;;5139479;27;19919;-78
2022/06/14 07:12:10;;;;;;;;;;;16.60;1.00;;;;;;5154402;27;19926;-76
2022/06/14 07:14:45;;;;;;;;;;;17.50;1.00;;;;;;5138672;27;19926;-82
2022/06/14 07:17:20;;;;;;;;;;;19.00;1.00;;;;;;5155435;27;19923;-75
2022/06/14 07:20:15;;;;;;;;;;;20.70;99.90;;;;;;5144695;27;19925;-77
2022/06/14 07:22:46;;;;;;;;;;;22.30;99.90;;;;;;5123775;27;20009;-77
2022/06/14 07:25:16;;;;;;;;;;;23.60;99.90;;;;;;5135521;27;19965;-76
2022/06/14 07:27:52;;;;;;;;;;;24.70;99.90;;;;;;5117750;27;19931;-76
2022/06/14 07:30:20;;;;;;;;;;;25.50;99.90;;;;;;5138013;27;19930;-76
2022/06/14 07:32:48;;;;;;;;;;;26.40;99.90;;;;;;5142072;27;20407;-85
2022/06/14 07:35:14;;;;;;;;;;;27.10;99.90;;;;;;5136565;27;19919;-76
2022/06/14 07:37:42;;;;;;;;;;;27.40;99.90;;;;;;5156921;27;20025;-76
2022/06/14 07:40:26;;;;;;;;;;;27.70;99.90;;;;;;5150523;27;19923;-76
2022/06/14 07:43:04;;;;;;;;;;;28.30;99.90;;;;;;5147570;27;20301;-78
2022/06/14 07:45:37;;;;;;;;;;;28.00;99.90;;;;;;5136009;27;20029;-77
2022/06/14 07:48:11;;;;;;;;;;;28.20;99.90;;;;;;5136991;27;19915;-77
2022/06/14 07:50:37;;;;;;;;;;;27.50;99.90;;;;;;5135597;27;19923;-76
2022/06/14 07:53:21;;;;;;;;;;;26.90;99.90;;;;;;5134664;27;19916;-76
2022/06/14 07:56:07;;;;;;;;;;;27.10;99.90;;;;;;5135202;27;19926;-76
2022/06/14 07:58:42;;;;;;;;;;;27.50;99.90;;;;;;5137538;27;20390;-75
2022/06/14 08:01:30;;;;;;;;;;;28.00;99.90;;;;;;5132325;27;19922;-76
2022/06/14 08:04:16;;;;;;;;;;;28.30;99.90;;;;;;5141859;27;19919;-76
2022/06/14 08:06:45;;;;;;;;;;;29.30;99.90;;;;;;5137644;27;19919;-77
2022/06/14 08:09:14;;;;;;;;;;;29.90;99.90;;;;;;5155829;27;19930;-76
2022/06/14 08:11:40;;;;;;;;;;;28.90;99.90;;;;;;5148425;27;20063;-77
2022/06/14 08:14:12;;;;;;;;;;;28.80;99.90;;;;;;5153125;27;19996;-79
2022/06/14 08:16:38;;;;;;;;;;;27.90;99.90;;;;;;5138796;27;19923;-76
2022/06/14 08:19:10;;;;;;;;;;;27.00;99.90;;;;;;5116746;27;20395;-75
2022/06/14 08:21:40;;;;;;;;;;;26.20;99.90;;;;;;5131658;27;19962;-77
2022/06/14 08:24:07;;;;;;;;;;;25.20;99.90;;;;;;5131985;27;19965;-77
2022/06/14 08:26:39;;;;;;;;;;;24.50;99.90;;;;;;5116341;27;19919;-75
2022/06/14 08:29:15;;;;;;;;;;;24.20;99.90;;;;;;5147550;27;20288;-76
2022/06/14 08:31:46;;;;;;;;;;;25.10;99.90;;;;;;5146848;27;19971;-77
2022/06/14 08:34:15;;;;;;;;;;;26.90;99.90;;;;;;5119796;27;20377;-77
2022/06/14 08:36:41;;;;;;;;;;;28.40;99.90;;;;;;5155750;27;19981;-77
2022/06/14 08:39:10;;;;;;;;;;;29.40;99.90;;;;;;5150540;27;19923;-77
2022/06/14 08:41:45;;;;;;;;;;;30.40;99.90;;;;;;5119246;27;20016;-77
2022/06/14 08:44:18;;;;;;;;;;;31.20;99.90;;;;;;5133236;27;19920;-76
2022/06/14 08:47:02;;;;;;;;;;;31.90;99.90;;;;;;5139752;27;19926;-77
2022/06/14 08:49:39;;;;;;;;;;;32.80;99.90;;;;;;5129897;27;20307;-77
2022/06/14 08:52:11;;;;;;;;;;;32.40;99.90;;;;;;5134343;27;19927;-79
2022/06/14 08:54:43;;;;;;;;;;;32.00;99.90;;;;;;5151933;27;19919;-79
2022/06/14 08:57:15;;;;;;;;;;;32.40;99.90;;;;;;5155123;27;20380;-76
2022/06/14 08:59:49;;;;;;;;;;;31.40;99.90;;;;;;5133813;27;19926;-78
2022/06/14 09:02:34;;;;;;;;;;;30.40;99.90;;;;;;5143769;27;19919;-79
2022/06/14 09:05:02;;;;;;;;;;;29.10;99.90;;;;;;5133865;27;20009;-78
2022/06/14 09:07:46;;;;;;;;;;;27.80;99.90;;;;;;5124995;27;19923;-78
2022/06/14 09:10:24;;;;;;;;;;;27.20;99.90;;;;;;5107351;27;19942;-78
2022/06/14 09:13:02;;;;;;;;;;;27.30;99.90;;;;;;5134851;27;19998;-78
2022/06/14 09:15:43;;;;;;;;;;;27.00;99.90;;;;;;5132633;27;20010;-78
2022/06/14 09:18:12;;;;;;;;;;;26.50;99.90;;;;;;5132739;27;19999;-78
2022/06/14 09:20:38;;;;;;;;;;;25.90;99.90;;;;;;5115421;27;20233;-78
2022/06/14 09:23:23;;;;;;;;;;;25.40;99.90;;;;;;5113496;27;19923;-78
2022/06/14 09:25:51;;;;;;;;;;;24.90;99.90;;;;;;5151520;27;19936;-79
2022/06/14 09:28:22;;;;;;;;;;;24.50;99.90;;;;;;5133976;27;20010;-77
2022/06/14 09:30:54;;;;;;;;;;;24.20;99.90;;;;;;5135594;27;19927;-78
2022/06/14 09:33:38;;;;;;;;;;;24.50;99.90;;;;;;5122527;27;19925;-76
2022/06/14 09:36:04;;;;;;;;;;;24.50;99.90;;;;;;5150308;27;20372;-76
2022/06/14 09:38:39;;;;;;;;;;;25.10;99.90;;;;;;5135722;27;20009;-76
2022/06/14 09:41:23;;;;;;;;;;;26.30;99.90;;;;;;5122656;27;20006;-76
2022/06/14 09:43:49;;;;;;;;;;;27.70;99.90;;;;;;5143233;27;20379;-79
2022/06/14 09:46:23;;;;;;;;;;;28.30;99.90;;;;;;5136324;27;19934;-77
2022/06/14 09:48:52;;;;;;;;;;;28.60;99.90;;;;;;5153888;27;20322;-77
2022/06/14 09:51:39;;;;;;;;;;;30.10;99.90;;;;;;5153482;27;20029;-76
2022/06/14 09:54:23;;;;;;;;;;;30.50;99.90;;;;;;5149216;27;19962;-77
2022/06/14 09:56:52;;;;;;;;;;;29.70;99.90;;;;;;5145174;27;20378;-78
2022/06/14 09:59:36;;;;;;;;;;;28.90;99.90;;;;;;5133019;27;19971;-76
2022/06/14 10:02:09;;;;;;;;;;;28.00;99.90;;;;;;5132810;27;19919;-82
2022/06/14 10:04:53;;;;;;;;;;;27.90;99.90;;;;;;5153399;27;19919;-76
2022/06/14 10:07:25;;;;;;;;;;;28.50;99.90;;;;;;5150805;27;19973;-75
2022/06/14 10:09:53;;;;;;;;;;;28.30;99.90;;;;;;5151441;27;19954;-75
2022/06/14 10:12:25;;;;;;;;;;;27.30;99.90;;;;;;5151707;27;20017;-76
2022/06/14 10:15:10;;;;;;;;;;;26.70;99.90;;;;;;5132752;27;20025;-75
2022/06/14 10:17:41;;;;;;;;;;;27.20;99.90;;;;;;5125861;27;19958;-75
2022/06/14 10:20:18;;;;;;;;;;;28.20;99.90;;;;;;5152962;27;20451;-75
2022/06/14 10:22:51;;;;;;;;;;;28.60;99.90;;;;;;5152380;27;19919;-74
2022/06/14 10:25:22;;;;;;;;;;;29.10;99.90;;;;;;5131426;27;19920;-75
2022/06/14 10:28:14;;;;;;;;;;;30.30;99.90;;;;;;5127669;27;20279;-74
2022/06/14 10:30:55;;;;;;;;;;;31.70;99.90;;;;;;5153766;27;19926;-75
2022/06/14 10:33:45;;;;;;;;;;;32.90;99.90;;;;;;5125920;27;19927;-74
2022/06/14 10:36:14;;;;;;;;;;;32.30;99.90;;;;;;5115394;27;19927;-75
2022/06/14 10:38:45;;;;;;;;;;;31.10;99.90;;;;;;5139025;27;19971;-74
2022/06/14 10:41:20;;;;;;;;;;;29.30;99.90;;;;;;5150117;27;19963;-74
2022/06/14 10:43:51;;;;;;;;;;;28.40;99.90;;;;;;5153579;27;19919;-74
2022/06/14 10:46:17;;;;;;;;;;;27.30;99.90;;;;;;5149974;27;19923;-73
2022/06/14 10:48:45;;;;;;;;;;;26.20;99.90;;;;;;5143107;27;20283;-74
2022/06/14 10:51:23;;;;;;;;;;;25.80;99.90;;;;;;5131611;27;19919;-75
2022/06/14 10:53:49;;;;;;;;;;;25.50;99.90;;;;;;5149556;27;19919;-74
2022/06/14 10:56:35;;;;;;;;;;;25.10;99.90;;;;;;5150401;27;20005;-74
2022/06/14 10:59:01;;;;;;;;;;;24.80;99.90;;;;;;5150890;27;20287;-76
2022/06/14 11:01:42;;;;;;;;;;;24.70;99.90;;;;;;5130024;28;19940;-74
2022/06/14 11:04:14;;;;;;;;;;;24.60;99.90;;;;;;5139441;27;20408;-85
2022/06/14 11:06:51;;;;;;;;;;;24.80;99.90;;;;;;5139613;27;20026;-74
2022/06/14 11:09:18;;;;;;;;;;;24.90;99.90;;;;;;5114136;28;19930;-76
2022/06/14 11:12:02;;;;;;;;;;;25.60;99.90;;;;;;5148002;27;20017;-75
2022/06/14 11:14:40;;;;;;;;;;;26.60;99.90;;;;;;5136262;27;19927;-76
2022/06/14 11:17:09;;;;;;;;;;;27.60;99.90;;;;;;5132824;27;19919;-75
2022/06/14 11:19:37;;;;;;;;;;;28.00;99.90;;;;;;5131239;27;19919;-76
2022/06/14 11:22:22;;;;;;;;;;;28.80;99.90;;;;;;5127652;28;19989;-76
2022/06/14 11:24:53;;;;;;;;;;;29.60;99.90;;;;;;5096620;28;19923;-76
2022/06/14 11:27:37;;;;;;;;;;;30.60;99.90;;;;;;5117293;27;19919;-75
2022/06/14 11:30:12;;;;;;;;;;;31.30;99.90;;;;;;5117044;27;19923;-74
2022/06/14 11:32:44;;;;;;;;;;;31.30;99.90;;;;;;5152083;27;19927;-75
2022/06/14 11:38:42;;;;;;;;;;;33.30;99.90;;;;;;5114611;28;19970;-75
2022/06/14 11:41:10;;;;;;;;;;;32.40;99.90;;;;;;5130332;27;20054;-75
2022/06/14 11:43:44;;;;;;;;;;;31.80;99.90;;;;;;5129224;27;19920;-77
2022/06/14 11:46:12;;;;;;;;;;;32.10;99.90;;;;;;5137641;27;19989;-75
2022/06/14 11:48:41;;;;;;;;;;;31.50;99.90;;;;;;5156277;27;19996;-75
2022/06/14 11:51:15;;;;;;;;;;;30.90;99.90;;;;;;5155932;27;19945;-75
2022/06/14 11:53:43;;;;;;;;;;;30.60;99.90;;;;;;5153415;27;19919;-79
2022/06/14 11:56:18;;;;;;;;;;;30.20;99.90;;;;;;5120680;27;20240;-75
2022/06/14 11:58:57;;;;;;;;;;;30.50;99.90;;;;;;5156681;27;19919;-75
2022/06/14 12:01:23;;;;;;;;;;;31.20;99.90;;;;;;5138619;27;19919;-75
2022/06/14 12:04:02;;;;;;;;;;;31.20;99.90;;;;;;5135398;27;20291;-82
2022/06/14 12:06:37;;;;;;;;;;;30.80;99.90;;;;;;5118829;27;19923;-75
2022/06/14 12:09:21;;;;;;;;;;;31.20;99.90;;;;;;5134796;27;20030;-75
2022/06/14 12:11:54;;;;;;;;;;;30.90;99.90;;;;;;5148614;27;19970;-74
2022/06/14 12:14:22;;;;;;;;;;;30.10;99.90;;;;;;5155800;27;19919;-75
2022/06/14 12:16:54;;;;;;;;;;;29.40;99.90;;;;;;5137795;27;19986;-75
2022/06/14 12:19:29;;;;;;;;;;;28.70;99.90;;;;;;5153518;27;20033;-82
2022/06/14 12:22:26;;;;;;;;;;;28.10;99.90;;;;;;5155003;27;19919;-75
2022/06/14 12:27:35;;;;;;;;;;;26.80;99.90;;;;;;5155729;27;19977;-75
2022/06/14 12:30:01;;;;;;;;;;;26.30;99.90;;;;;;5114594;27;19954;-75
2022/06/14 12:32:33;;;;;;;;;;;25.80;99.90;;;;;;5142027;27;19984;-75
2022/06/14 12:35:01;;;;;;;;;;;25.40;99.90;;;;;;5155371;27;19923;-75
2022/06/14 12:37:34;;;;;;;;;;;25.10;99.90;;;;;;5137114;27;19919;-75
2022/06/14 12:40:02;;;;;;;;;;;24.90;99.90;;;;;;5144203;27;20556;-75
2022/06/14 12:42:47;;;;;;;;;;;24.80;99.90;;;;;;5138555;27;19973;-76
2022/06/14 12:45:19;;;;;;;;;;;24.60;99.90;;;;;;5151276;27;19985;-76
2022/06/14 12:47:50;;;;;;;;;;;24.50;99.90;;;;;;5152579;27;19926;-75
2022/06/14 12:50:22;;;;;;;;;;;24.20;99.90;;;;;;5135488;27;20237;-75
2022/06/14 12:52:51;;;;;;;;;;;24.10;99.90;;;;;;5137127;27;20283;-75
2022/06/14 12:55:24;;;;;;;;;;;24.10;99.90;;;;;;5131343;27;19919;-75
2022/06/14 12:57:53;;;;;;;;;;;24.20;99.90;;;;;;5155248;27;19919;-75
2022/06/14 13:00:26;;;;;;;;;;;24.20;99.90;;;;;;5147812;27;19923;-75
2022/06/14 13:02:58;;;;;;;;;;;24.40;99.90;;;;;;5136499;27;19930;-75
2022/06/14 13:05:27;;;;;;;;;;;24.50;99.90;;;;;;5148942;27;20352;-74
2022/06/14 13:08:25;;;;;;;;;;;24.70;99.90;;;;;;5123300;27;19919;-77
2022/06/14 13:11:05;;;;;;;;;;;24.90;99.90;;;;;;5101043;27;19919;-81
2022/06/14 13:13:45;;;;;;;;;;;25.20;99.90;;;;;;5133736;27;19919;-75
2022/06/14 13:16:29;;;;;;;;;;;25.40;99.90;;;;;;5133854;27;19919;-75
2022/06/14 13:19:18;;;;;;;;;;;25.50;99.90;;;;;;5134261;27;20285;-75
2022/06/14 13:21:50;;;;;;;;;;;25.50;99.90;;;;;;5124349;27;19926;-75
2022/06/14 13:24:30;;;;;;;;;;;25.60;99.90;;;;;;5149161;27;20332;-75
2022/06/14 13:27:04;;;;;;;;;;;25.70;99.90;;;;;;5098233;27;19920;-75
2022/06/14 13:29:41;;;;;;;;;;;25.80;99.90;;;;;;5133529;27;20026;-75
2022/06/14 13:32:25;;;;;;;;;;;25.90;99.90;;;;;;5143495;27;20367;-75
2022/06/14 13:34:58;;;;;;;;;;;25.90;99.90;;;;;;5146110;27;19987;-76
2022/06/14 13:37:39;;;;;;;;;;;26.00;99.90;;;;;;5135222;27;20010;-75
2022/06/14 13:40:08;;;;;;;;;;;26.00;99.90;;;;;;5138780;27;19923;-75
2022/06/14 13:42:37;;;;;;;;;;;25.80;99.90;;;;;;5126350;27;19919;-75
2022/06/14 13:45:08;;;;;;;;;;;25.50;99.90;;;;;;5147917;27;21264;-76
2022/06/14 13:47:33;;;;;;;;;;;25.70;99.90;;;;;;5147042;27;19919;-75
2022/06/14 13:50:06;;;;;;;;;;;25.80;99.90;;;;;;5144108;27;19920;-75
2022/06/14 13:52:36;;;;;;;;;;;25.90;99.90;;;;;;5133541;27;19919;-75
2022/06/14 13:55:07;;;;;;;;;;;25.80;99.90;;;;;;5132011;27;19972;-75
2022/06/14 13:57:34;;;;;;;;;;;25.70;99.90;;;;;;5105065;27;19923;-75
2022/06/14 14:00:13;;;;;;;;;;;25.60;99.90;;;;;;5145202;27;19919;-75
2022/06/14 14:02:48;;;;;;;;;;;25.60;99.90;;;;;;5135190;27;20244;-75
2022/06/14 14:05:23;;;;;;;;;;;25.50;99.90;;;;;;5124311;27;20010;-77
2022/06/14 14:07:54;;;;;;;;;;;25.50;99.90;;;;;;5132885;27;19927;-75
2022/06/14 14:10:41;;;;;;;;;;;25.60;99.90;;;;;;5131154;27;20000;-75
2022/06/14 14:13:16;;;;;;;;;;;25.80;99.90;;;;;;5126772;27;19941;-75
2022/06/14 14:15:54;;;;;;;;;;;25.60;99.90;;;;;;5141781;27;20348;-75
2022/06/14 14:18:29;;;;;;;;;;;25.30;99.90;;;;;;5154016;27;20006;-76
2022/06/14 14:21:07;;;;;;;;;;;25.30;99.90;;;;;;5128573;27;19923;-75
2022/06/14 14:23:39;;;;;;;;;;;25.30;99.90;;;;;;5137534;27;19998;-75
2022/06/14 14:26:25;;;;;;;;;;;25.30;99.90;;;;;;5140793;27;19919;-75
2022/06/14 14:29:03;;;;;;;;;;;25.40;99.90;;;;;;5153142;27;20138;-75
2022/06/14 14:31:38;;;;;;;;;;;25.30;99.90;;;;;;5148519;27;20295;-75
2022/06/14 14:34:09;;;;;;;;;;;25.30;99.90;;;;;;5144163;27;19919;-75
2022/06/14 14:36:53;;;;;;;;;;;25.30;99.90;;;;;;5145251;27;19919;-75
2022/06/14 14:39:32;;;;;;;;;;;25.20;99.90;;;;;;5114376;27;19927;-75
2022/06/14 14:42:04;;;;;;;;;;;25.00;99.90;;;;;;5131723;27;19923;-82
2022/06/14 14:44:33;;;;;;;;;;;24.80;99.90;;;;;;5132821;27;20298;-75
2022/06/14 14:47:01;;;;;;;;;;;24.90;99.90;;;;;;5114716;27;19923;-75
2022/06/14 14:49:35;;;;;;;;;;;24.80;99.90;;;;;;5144542;27;19973;-74
2022/06/14 14:52:08;;;;;;;;;;;24.70;99.90;;;;;;5139559;27;20268;-74
2022/06/14 14:54:44;;;;;;;;;;;24.70;99.90;;;;;;5145162;27;19931;-77
2022/06/14 14:57:16;;;;;;;;;;;24.60;99.90;;;;;;5134479;27;19972;-75
2022/06/14 14:59:45;;;;;;;;;;;24.70;99.90;;;;;;5143084;27;20016;-75
2022/06/14 15:07:45;;;;;;;;;;;24.60;99.90;;;;;;5132333;27;19923;-76
2022/06/14 15:10:17;;;;;;;;;;;24.50;99.90;;;;;;5133523;27;19938;-76
2022/06/14 15:12:43;;;;;;;;;;;24.10;99.90;;;;;;5138866;27;19981;-76
2022/06/14 15:15:11;;;;;;;;;;;24.00;99.90;;;;;;5135404;27;20316;-75